Time;durP1;ratioP1;P1;durP2;ratioP2;P2;SDS_P1;SDS_P2;PMS_P1;PMS_P2;Temp;Humidity;BMP_temperature;BMP_pressure;BME280_temperature;BME280_humidity;BME280_pressure;Samples;Min_cycle;Max_cycle;Signal;HPM_P1;HPM_P2
2022/05/06 00:01:39;;;;;;;23.10;10.10;;;;;;;19.37;49.29;102676.75;5030768;28;20068;-71
2022/05/06 00:04:06;;;;;;;19.60;8.97;;;;;;;19.85;47.39;102675.00;5032368;28;20022;-71
2022/05/06 00:06:32;;;;;;;22.67;10.37;;;;;;;20.27;46.85;102669.72;5030303;28;20477;-71
2022/05/06 00:08:57;;;;;;;22.53;9.03;;;;;;;19.67;48.03;102669.13;5031440;28;20121;-71
2022/05/06 00:11:23;;;;;;;23.13;9.57;;;;;;;19.58;48.52;102677.28;5033770;28;20507;-71
2022/05/06 00:13:52;;;;;;;21.43;10.17;;;;;;;19.69;47.87;102677.94;5030438;28;20025;-71
2022/05/06 00:16:20;;;;;;;23.97;10.33;;;;;;;19.57;48.20;102671.06;5031109;28;20044;-71
2022/05/06 00:18:46;;;;;;;22.57;10.83;;;;;;;20.38;46.14;102667.69;5032722;28;20033;-71
2022/05/06 00:21:11;;;;;;;17.73;9.17;;;;;;;19.80;47.67;102673.31;5031452;28;20473;-71
2022/05/06 00:23:37;;;;;;;24.30;11.43;;;;;;;20.64;44.97;102668.88;5033235;28;20124;-71
2022/05/06 00:26:03;;;;;;;24.80;10.10;;;;;;;20.36;45.86;102671.28;5031593;28;20082;-70
2022/05/06 00:28:32;;;;;;;22.87;10.63;;;;;;;20.96;44.09;102661.94;5029397;28;20025;-71
2022/05/06 00:30:58;;;;;;;21.43;9.97;;;;;;;19.80;47.37;102669.81;5031647;28;20513;-71
2022/05/06 00:33:26;;;;;;;23.23;9.50;;;;;;;20.88;44.90;102661.25;5046409;28;20025;-71
2022/05/06 00:35:56;;;;;;;23.60;10.73;;;;;;;20.39;45.84;102657.94;5030841;28;20025;-71
2022/05/06 00:38:21;;;;;;;20.40;10.47;;;;;;;20.72;45.10;102661.66;5036435;28;20069;-71
2022/05/06 00:40:47;;;;;;;25.10;9.23;;;;;;;19.57;47.99;102662.25;5030524;28;20053;-70
2022/05/06 00:43:12;;;;;;;22.93;9.27;;;;;;;20.12;47.14;102649.69;5031783;28;20112;-71
2022/05/06 00:45:47;;;;;;;21.57;9.70;;;;;;;21.15;44.32;102649.94;5030225;28;20029;-71
2022/05/06 00:48:13;;;;;;;25.57;10.17;;;;;;;21.14;43.95;102642.88;5031096;28;20033;-71
2022/05/06 00:50:39;;;;;;;23.60;10.17;;;;;;;20.76;45.06;102651.78;5039969;28;20028;-71
2022/05/06 00:53:07;;;;;;;22.30;9.53;;;;;;;20.78;44.48;102650.00;5017218;28;20402;-71
2022/05/06 00:55:34;;;;;;;21.93;9.27;;;;;;;20.88;44.29;102645.31;5027066;28;20025;-71
2022/05/06 00:58:01;;;;;;;21.90;10.23;;;;;;;20.43;45.09;102641.91;5031456;28;20436;-71
2022/05/06 01:00:26;;;;;;;24.80;10.97;;;;;;;20.91;44.97;102651.44;5030169;28;20036;-71
2022/05/06 01:02:51;;;;;;;27.87;10.80;;;;;;;20.99;44.61;102652.13;5028394;28;20060;-71
2022/05/06 01:05:17;;;;;;;28.23;12.20;;;;;;;20.75;45.38;102656.25;5047058;28;20075;-71
2022/05/06 01:07:44;;;;;;;28.70;10.07;;;;;;;20.73;45.41;102659.84;5031267;28;20059;-71
2022/05/06 01:10:10;;;;;;;28.10;12.10;;;;;;;21.29;43.76;102657.53;5027974;28;20396;-71
2022/05/06 01:12:36;;;;;;;28.97;11.80;;;;;;;20.90;44.94;102664.78;5030397;28;20464;-71
2022/05/06 01:15:01;;;;;;;23.17;10.43;;;;;;;20.94;44.79;102650.50;5047639;28;20037;-71
2022/05/06 01:17:26;;;;;;;27.37;11.30;;;;;;;20.80;45.41;102656.13;5030926;28;20033;-71
2022/05/06 01:19:52;;;;;;;28.00;11.43;;;;;;;20.80;45.39;102654.38;5031599;28;20056;-70
2022/05/06 01:22:17;;;;;;;27.50;12.30;;;;;;;20.60;45.18;102662.75;5029715;28;20116;-71
2022/05/06 01:24:43;;;;;;;25.73;11.03;;;;;;;20.80;44.94;102665.00;5044716;28;20140;-71
2022/05/06 01:27:14;;;;;;;26.07;10.80;;;;;;;20.99;44.82;102664.53;5031446;28;20033;-70
2022/05/06 01:29:40;;;;;;;24.23;10.57;;;;;;;21.08;44.82;102664.31;5022543;28;20113;-71
2022/05/06 01:32:07;;;;;;;28.83;10.17;;;;;;;20.74;45.33;102667.78;5049444;28;20039;-71
2022/05/06 01:34:34;;;;;;;23.03;9.73;;;;;;;20.89;45.34;102669.19;5050414;28;20080;-70
2022/05/06 01:37:03;;;;;;;25.63;10.30;;;;;;;21.10;44.19;102667.81;5034173;28;20440;-71
2022/05/06 01:39:31;;;;;;;26.63;10.17;;;;;;;20.81;44.87;102672.06;5025648;28;20401;-71
2022/05/06 01:42:04;;;;;;;24.77;9.93;;;;;;;20.83;45.08;102664.91;4993552;28;20452;-71
2022/05/06 01:44:35;;;;;;;24.47;8.53;;;;;;;20.46;45.80;102654.25;5011996;28;20057;-71
2022/05/06 01:47:05;;;;;;;26.93;10.20;;;;;;;20.82;45.07;102657.84;5031473;28;20474;-71
2022/05/06 01:49:31;;;;;;;26.37;10.10;;;;;;;20.84;44.96;102656.03;5029280;28;20033;-71
2022/05/06 01:51:58;;;;;;;24.57;10.00;;;;;;;21.19;44.17;102656.91;5029318;28;20133;-71
2022/05/06 01:54:24;;;;;;;20.17;8.83;;;;;;;20.91;44.52;102661.19;5030525;28;20021;-71
2022/05/06 01:56:49;;;;;;;29.77;10.33;;;;;;;19.99;47.81;102665.00;5028132;28;20159;-71
2022/05/06 01:59:15;;;;;;;30.40;10.60;;;;;;;20.95;45.16;102673.47;5029513;28;20052;-71
2022/05/06 02:01:40;;;;;;;23.30;8.77;;;;;;;20.97;44.68;102666.38;5028618;28;20114;-71
2022/05/06 02:06:49;;;;;;;27.10;9.93;;;;;;;20.54;45.98;102668.22;5022378;28;20067;-70
2022/05/06 02:09:16;;;;;;;25.97;9.80;;;;;;;19.50;48.49;102670.31;5022222;28;20041;-70
2022/05/06 02:11:42;;;;;;;21.37;9.60;;;;;;;20.28;47.28;102667.03;5029446;28;20029;-71
2022/05/06 02:14:07;;;;;;;28.50;10.37;;;;;;;20.06;47.50;102671.03;5011137;28;20080;-71
2022/05/06 02:16:32;;;;;;;23.00;10.23;;;;;;;20.20;47.90;102665.47;5020218;28;20397;-71
2022/05/06 02:18:58;;;;;;;27.20;11.27;;;;;;;20.83;45.80;102659.59;5030228;28;20044;-70
2022/05/06 02:21:23;;;;;;;28.33;10.77;;;;;;;20.83;45.36;102654.28;5029927;28;20535;-70
2022/05/06 02:23:48;;;;;;;29.33;10.33;;;;;;;20.32;45.95;102657.22;5029003;28;20300;-70
2022/05/06 02:26:14;;;;;;;28.20;10.77;;;;;;;20.14;46.78;102651.41;5027296;28;20079;-71
2022/05/06 02:28:39;;;;;;;27.83;10.03;;;;;;;20.71;45.61;102654.56;5027382;28;20030;-71
2022/05/06 02:33:48;;;;;;;32.27;11.33;;;;;;;20.75;44.91;102656.25;5029882;28;20040;-71
2022/05/06 02:36:13;;;;;;;32.00;11.83;;;;;;;21.06;44.34;102660.81;5024162;28;20029;-71
2022/05/06 02:38:39;;;;;;;37.40;12.47;;;;;;;20.66;45.04;102657.31;5026700;28;20155;-71
2022/05/06 02:41:04;;;;;;;38.93;10.27;;;;;;;21.12;44.42;102655.34;5027955;28;20128;-71
2022/05/06 02:43:30;;;;;;;35.40;11.83;;;;;;;19.83;47.19;102665.28;5030705;28;20021;-70
2022/05/06 02:45:55;;;;;;;35.40;11.70;;;;;;;20.07;47.43;102663.06;5029710;28;20109;-71
2022/05/06 02:48:20;;;;;;;42.07;11.73;;;;;;;19.89;47.56;102669.59;5010902;28;20112;-71
2022/05/06 02:50:47;;;;;;;25.43;10.53;;;;;;;20.10;46.78;102662.09;5010068;28;20542;-70
2022/05/06 02:53:12;;;;;;;28.93;11.23;;;;;;;19.61;48.54;102670.13;5008773;28;20029;-71
2022/05/06 02:55:39;;;;;;;24.53;9.83;;;;;;;20.50;45.85;102663.91;5025153;28;20400;-70
2022/05/06 02:58:04;;;;;;;38.70;9.90;;;;;;;20.39;45.87;102664.13;5028717;28;20034;-70
2022/05/06 03:00:30;;;;;;;31.60;10.53;;;;;;;20.65;45.15;102665.34;5024405;28;20026;-70
2022/05/06 03:02:56;;;;;;;33.70;12.23;;;;;;;20.57;45.64;102668.16;5009824;28;20036;-70
2022/05/06 03:05:23;;;;;;;36.23;11.67;;;;;;;20.96;44.27;102665.47;5011029;28;20117;-71
2022/05/06 03:07:48;;;;;;;33.37;12.47;;;;;;;20.93;44.64;102659.38;5014540;28;20037;-71
2022/05/06 03:10:13;;;;;;;37.87;13.77;;;;;;;21.06;44.51;102666.13;5008938;28;20030;-71
2022/05/06 03:12:42;;;;;;;33.70;12.90;;;;;;;20.14;46.58;102669.97;5026068;28;20104;-70
2022/05/06 03:15:08;;;;;;;39.10;12.03;;;;;;;19.87;47.00;102665.25;5028752;28;20029;-70
2022/05/06 03:17:34;;;;;;;37.67;13.43;;;;;;;20.03;46.84;102665.78;5027660;28;20475;-71
2022/05/06 03:20:00;;;;;;;36.60;14.07;;;;;;;20.01;47.72;102665.84;5028855;28;20029;-71
2022/05/06 03:22:26;;;;;;;34.97;13.37;;;;;;;20.41;45.96;102650.81;5026934;28;20032;-70
2022/05/06 03:24:52;;;;;;;43.77;14.30;;;;;;;20.87;45.44;102654.19;5028460;28;20382;-70
2022/05/06 03:30:02;;;;;;;49.10;16.07;;;;;;;21.04;44.57;102651.13;5009964;28;20119;-71
2022/05/06 03:32:28;;;;;;;45.90;16.33;;;;;;;20.98;44.66;102652.16;5009518;28;20488;-70
2022/05/06 03:34:53;;;;;;;49.47;17.00;;;;;;;21.11;44.39;102648.25;5008522;28;20033;-71
2022/05/06 03:37:19;;;;;;;53.83;15.77;;;;;;;21.29;44.19;102643.38;5018471;28;20405;-72
2022/05/06 03:39:45;;;;;;;48.93;15.73;;;;;;;21.30;43.96;102647.78;5008271;28;20025;-71
2022/05/06 03:42:10;;;;;;;50.50;15.07;;;;;;;21.44;43.84;102650.94;5009102;28;20053;-71
2022/05/06 03:44:36;;;;;;;42.13;15.47;;;;;;;21.00;44.92;102659.16;5008940;28;20120;-71
2022/05/06 03:47:01;;;;;;;45.57;15.40;;;;;;;21.18;44.75;102657.84;5018473;28;20071;-71
2022/05/06 03:49:26;;;;;;;43.43;15.63;;;;;;;20.21;46.36;102656.56;5011588;28;20531;-71
2022/05/06 03:51:52;;;;;;;35.07;12.57;;;;;;;20.77;45.13;102659.75;5027599;28;20105;-71
2022/05/06 03:54:17;;;;;;;32.67;12.83;;;;;;;20.78;45.95;102652.66;5028311;28;20029;-71
2022/05/06 03:56:42;;;;;;;29.30;10.57;;;;;;;20.26;47.20;102658.22;5037680;28;20079;-71
2022/05/06 03:59:09;;;;;;;31.17;11.13;;;;;;;20.59;45.97;102650.38;5027685;28;20021;-71
2022/05/06 04:01:35;;;;;;;32.07;11.57;;;;;;;20.78;45.00;102656.16;5015046;28;20054;-71
2022/05/06 04:04:01;;;;;;;28.40;11.13;;;;;;;21.17;44.18;102656.09;5029494;28;20456;-71
2022/05/06 04:06:27;;;;;;;29.73;11.27;;;;;;;21.29;43.85;102657.53;5021873;28;20060;-71
2022/05/06 04:08:53;;;;;;;34.53;12.03;;;;;;;20.93;44.48;102659.38;5012130;28;20057;-71
2022/05/06 04:11:20;;;;;;;30.87;10.57;;;;;;;21.36;43.85;102655.59;5013920;28;20034;-70
2022/05/06 04:13:45;;;;;;;35.83;11.57;;;;;;;21.48;43.24;102657.06;5011284;28;20537;-70
2022/05/06 04:16:10;;;;;;;32.20;11.70;;;;;;;21.51;43.65;102657.88;5028675;28;20116;-70
2022/05/06 04:18:36;;;;;;;28.87;10.43;;;;;;;21.50;43.53;102660.53;5014478;28;20094;-70
2022/05/06 04:23:45;;;;;;;32.90;10.50;;;;;;;20.93;44.59;102665.56;5032941;28;20047;-71
2022/05/06 04:26:11;;;;;;;24.80;10.40;;;;;;;21.01;44.80;102668.03;5018017;28;20592;-71
2022/05/06 04:28:37;;;;;;;29.90;10.47;;;;;;;20.99;44.57;102667.19;5029608;28;20034;-71
2022/05/06 04:31:03;;;;;;;27.47;9.93;;;;;;;21.38;43.65;102671.50;5031270;28;20458;-71
2022/05/06 04:33:33;;;;;;;32.83;9.40;;;;;;;20.84;44.67;102665.78;5031339;28;20028;-71
2022/05/06 04:35:59;;;;;;;25.47;10.53;;;;;;;21.02;44.20;102669.78;5030848;28;20335;-70
2022/05/06 04:38:28;;;;;;;27.07;9.97;;;;;;;21.33;43.67;102661.00;5031856;28;20056;-70
2022/05/06 04:40:55;;;;;;;33.67;11.33;;;;;;;19.89;47.17;102669.59;5029491;28;20519;-70
2022/05/06 04:43:21;;;;;;;31.47;11.30;;;;;;;20.49;45.56;102657.69;5013107;28;20033;-71
2022/05/06 04:45:47;;;;;;;28.57;12.20;;;;;;;20.58;46.00;102663.69;5024376;28;20034;-71
2022/05/06 04:48:13;;;;;;;32.13;11.30;;;;;;;21.35;43.93;102672.50;5040944;28;20033;-70
2022/05/06 04:50:39;;;;;;;33.33;12.63;;;;;;;20.54;45.36;102681.50;5051034;28;20021;-71
2022/05/06 04:53:07;;;;;;;27.33;10.90;;;;;;;20.99;44.57;102680.47;5046382;28;20168;-70
2022/05/06 04:55:37;;;;;;;28.30;11.63;;;;;;;20.56;45.44;102678.81;5029590;28;20039;-70
2022/05/06 04:58:03;;;;;;;36.87;13.17;;;;;;;20.86;45.77;102690.53;5031421;28;20064;-70
2022/05/06 05:00:29;;;;;;;40.87;12.57;;;;;;;20.50;45.94;102678.03;5029468;28;20477;-71
2022/05/06 05:02:55;;;;;;;33.93;12.40;;;;;;;20.92;44.98;102678.88;5031844;28;20492;-70
2022/05/06 05:05:20;;;;;;;43.97;13.47;;;;;;;20.25;46.40;102682.13;5023090;28;20030;-70
2022/05/06 05:07:46;;;;;;;40.23;14.00;;;;;;;20.32;46.87;102683.78;5010309;28;20045;-71
2022/05/06 05:10:12;;;;;;;41.33;14.83;;;;;;;21.00;44.91;102682.22;5016956;28;20405;-70
2022/05/06 05:12:37;;;;;;;37.20;13.70;;;;;;;21.12;44.76;102683.72;5030194;28;20485;-71
2022/05/06 05:15:04;;;;;;;30.87;12.20;;;;;;;20.59;45.98;102692.03;5028759;28;20030;-70
2022/05/06 05:17:32;;;;;;;35.20;13.00;;;;;;;20.76;45.80;102689.00;5030485;28;20029;-70
2022/05/06 05:19:57;;;;;;;30.77;12.73;;;;;;;21.24;44.60;102686.06;5030728;28;20017;-70
2022/05/06 05:22:23;;;;;;;37.33;11.90;;;;;;;21.32;44.18;102691.16;5013855;28;20512;-71
2022/05/06 05:24:48;;;;;;;29.87;10.10;;;;;;;19.76;47.27;102703.44;5027999;28;20500;-71
2022/05/06 05:27:15;;;;;;;30.43;12.20;;;;;;;20.32;46.45;102695.25;5030662;28;20499;-71
2022/05/06 05:29:41;;;;;;;28.30;12.10;;;;;;;21.04;44.87;102694.53;5027675;28;20028;-71
2022/05/06 05:32:07;;;;;;;35.73;13.53;;;;;;;21.64;43.83;102694.81;5047595;28;20029;-71
2022/05/06 05:34:33;;;;;;;31.43;11.87;;;;;;;21.48;43.85;102697.81;5029544;28;20036;-70
2022/05/06 05:36:58;;;;;;;29.37;12.43;;;;;;;21.50;43.88;102698.69;5009651;28;20030;-73
2022/05/06 05:39:24;;;;;;;37.93;12.83;;;;;;;20.82;46.42;102699.50;5025379;28;20535;-70
2022/05/06 05:41:49;;;;;;;28.17;11.87;;;;;;;21.26;45.41;102701.97;5028081;28;20480;-70
2022/05/06 05:49:43;;;;;;;24.83;9.50;;;;;;;21.49;44.21;102701.38;5030775;28;20573;-70
2022/05/06 05:52:09;;;;;;;21.77;9.80;;;;;;;21.81;43.72;102702.31;5026349;28;20116;-70
2022/05/06 05:54:34;;;;;;;28.30;10.80;;;;;;;21.38;44.12;102701.66;5031215;28;20545;-70
2022/05/06 05:56:59;;;;;;;25.60;10.43;;;;;;;20.90;44.27;102696.66;5028665;28;20492;-71
2022/05/06 05:59:25;;;;;;;24.33;10.05;;;;;;;21.43;44.00;102702.41;5030017;28;20036;-71
2022/05/06 06:01:51;;;;;;;25.38;10.27;;;;;;;20.93;44.70;102694.78;5027935;28;20040;-71
2022/05/06 06:04:16;;;;;;;25.33;10.23;;;;;;;21.34;43.69;102700.00;5026375;28;20051;-70
2022/05/06 06:06:42;;;;;;;24.95;10.55;;;;;;;21.05;44.35;102690.97;4994098;28;20494;-70
2022/05/06 06:09:08;;;;;;;20.67;9.68;;;;;;;21.39;43.35;102697.19;5010429;28;20025;-70
2022/05/06 06:11:35;;;;;;;27.20;11.85;;;;;;;20.89;44.57;102697.56;5024797;28;20025;-70
2022/05/06 06:14:00;;;;;;;24.55;11.10;;;;;;;21.54;44.19;102702.13;5029949;28;20026;-70
2022/05/06 06:16:26;;;;;;;25.15;10.25;;;;;;;21.27;43.78;102707.25;5046416;28;20371;-70
2022/05/06 06:18:51;;;;;;;24.05;11.45;;;;;;;20.88;44.53;102709.09;5028012;28;20496;-70
2022/05/06 06:21:17;;;;;;;24.63;10.30;;;;;;;20.26;46.71;102713.97;5028220;28;20025;-70
2022/05/06 06:23:42;;;;;;;22.25;10.13;;;;;;;21.17;43.84;102711.94;5030806;28;20065;-70
2022/05/06 06:26:07;;;;;;;23.02;10.30;;;;;;;20.95;44.41;102716.00;5027217;28;20060;-71
2022/05/06 06:28:33;;;;;;;21.10;10.65;;;;;;;21.29;44.31;102713.38;5028826;28;20029;-70
2022/05/06 06:30:58;;;;;;;23.50;11.57;;;;;;;22.32;42.02;102707.03;5009861;28;20049;-70
2022/05/06 06:33:23;;;;;;;20.35;9.57;;;;;;;21.76;43.12;102718.41;5026377;28;20072;-71
2022/05/06 06:35:49;;;;;;;25.70;11.30;;;;;;;21.48;43.27;102727.09;5025258;28;20462;-71
2022/05/06 06:38:14;;;;;;;21.05;9.73;;;;;;;22.29;41.92;102715.13;5034593;28;20030;-70
2022/05/06 06:40:39;;;;;;;26.42;11.23;;;;;;;22.50;41.74;102724.31;5026086;28;20033;-70
2022/05/06 06:43:05;;;;;;;26.67;11.80;;;;;;;20.98;43.76;102730.13;5029786;28;20025;-71
2022/05/06 06:45:31;;;;;;;24.55;11.85;;;;;;;22.69;40.82;102726.38;5012990;28;20039;-70
2022/05/06 06:47:59;;;;;;;24.02;11.45;;;;;;;22.53;40.92;102728.63;5028667;28;20473;-71
2022/05/06 06:50:25;;;;;;;22.67;11.60;;;;;;;21.62;43.08;102731.22;5028929;28;20116;-70
2022/05/06 06:52:51;;;;;;;24.23;11.77;;;;;;;21.82;42.41;102730.69;5012357;28;20112;-70
2022/05/06 06:55:17;;;;;;;24.33;13.05;;;;;;;22.45;41.75;102725.34;5028280;28;20025;-70
2022/05/06 06:57:43;;;;;;;28.33;13.13;;;;;;;21.61;42.42;102732.13;5014509;28;20030;-71
2022/05/06 07:00:09;;;;;;;25.30;12.30;;;;;;;23.03;40.67;102725.31;5027884;28;20165;-71
2022/05/06 07:02:36;;;;;;;24.45;12.27;;;;;;;22.49;41.26;102735.88;5028798;28;20069;-71
2022/05/06 07:05:02;;;;;;;23.63;11.73;;;;;;;23.07;40.75;102734.97;5028611;28;20025;-71
2022/05/06 07:12:56;;;;;;;25.00;12.25;;;;;;;24.08;38.27;102745.72;5030500;28;20127;-70
2022/05/06 07:15:23;;;;;;;22.92;11.15;;;;;;;24.21;37.41;102743.50;5029983;28;20064;-71
2022/05/06 07:17:48;;;;;;;28.35;13.20;;;;;;;25.59;35.27;102744.22;5026616;28;20025;-71
2022/05/06 07:20:14;;;;;;;26.80;12.00;;;;;;;26.05;34.41;102735.97;5021670;28;20025;-70
2022/05/06 07:22:39;;;;;;;23.60;11.23;;;;;;;27.52;32.93;102742.28;5022593;28;20033;-70
2022/05/06 07:25:05;;;;;;;20.63;10.57;;;;;;;28.30;30.92;102739.06;5023177;28;20018;-70
2022/05/06 07:27:33;;;;;;;24.58;11.98;;;;;;;29.17;29.06;102735.91;5023762;28;20029;-70
2022/05/06 07:29:59;;;;;;;20.65;11.02;;;;;;;29.50;28.04;102737.56;5013152;28;20051;-71
2022/05/06 07:32:24;;;;;;;17.60;9.77;;;;;;;30.01;27.75;102741.66;5026441;28;20492;-70
2022/05/06 07:34:49;;;;;;;15.80;7.65;;;;;;;29.98;28.15;102736.44;5026468;28;20037;-71
2022/05/06 07:37:17;;;;;;;14.95;8.38;;;;;;;30.91;25.39;102731.34;5028639;28;20091;-71
2022/05/06 07:39:43;;;;;;;15.68;9.20;;;;;;;31.20;25.42;102732.13;5027922;28;20044;-71
2022/05/06 07:42:10;;;;;;;19.15;10.10;;;;;;;30.97;26.24;102730.97;5031654;28;20040;-71
2022/05/06 07:44:36;;;;;;;20.15;10.02;;;;;;;31.13;26.45;102728.09;5030882;28;20037;-71
2022/05/06 07:47:01;;;;;;;17.02;9.20;;;;;;;31.86;25.55;102721.25;5029974;28;20040;-71
2022/05/06 07:49:27;;;;;;;19.25;10.60;;;;;;;31.84;25.36;102728.59;5013251;28;20037;-71
2022/05/06 07:51:53;;;;;;;21.42;10.95;;;;;;;33.04;24.67;102723.47;5015550;28;20030;-71
2022/05/06 07:54:18;;;;;;;19.73;10.63;;;;;;;33.05;24.40;102722.50;5013083;28;20473;-72
2022/05/06 07:56:44;;;;;;;21.70;10.80;;;;;;;33.72;23.63;102719.06;5029337;28;20044;-71
2022/05/06 07:59:09;;;;;;;20.92;11.05;;;;;;;33.83;23.42;102718.25;5031000;28;20038;-72
2022/05/06 08:04:34;;;;;;;23.75;11.63;;;;;;;34.66;24.00;102711.47;5033471;28;20105;-72
2022/05/06 08:07:00;;;;;;;20.15;10.90;;;;;;;34.85;21.36;102718.06;5033796;28;20103;-72
2022/05/06 08:09:26;;;;;;;21.55;12.18;;;;;;;35.76;21.67;102714.78;5031966;28;20117;-72
2022/05/06 08:11:51;;;;;;;20.67;11.50;;;;;;;35.72;21.89;102713.34;5031174;28;20108;-71
2022/05/06 08:14:18;;;;;;;22.95;11.52;;;;;;;36.39;20.26;102706.41;5032247;28;20033;-72
2022/05/06 08:16:45;;;;;;;20.02;11.07;;;;;;;37.03;18.85;102709.59;5030880;28;20029;-72
2022/05/06 08:19:10;;;;;;;21.70;11.05;;;;;;;37.40;19.87;102702.50;5031147;28;20132;-71
2022/05/06 08:21:36;;;;;;;21.67;11.73;;;;;;;36.20;20.30;102711.81;5031956;28;20568;-71
2022/05/06 08:24:01;;;;;;;27.85;14.63;;;;;;;36.33;19.52;102710.56;5032121;28;20057;-71
2022/05/06 08:26:27;;;;;;;29.58;15.00;;;;;;;36.74;19.74;102702.28;5047696;28;20479;-71
2022/05/06 08:28:52;;;;;;;37.03;17.73;;;;;;;34.86;22.02;102705.34;5029595;28;20043;-72
2022/05/06 08:31:18;;;;;;;36.95;17.27;;;;;;;35.42;22.02;102712.31;5028823;28;20090;-71
2022/05/06 08:33:43;;;;;;;31.10;17.23;;;;;;;34.44;22.40;102700.66;5045382;28;20026;-71
2022/05/06 08:36:08;;;;;;;30.23;16.38;;;;;;;36.49;20.78;102695.53;5032030;28;20022;-71
2022/05/06 08:38:34;;;;;;;32.25;16.48;;;;;;;36.46;21.17;102695.81;5032243;28;20439;-71
2022/05/06 08:41:02;;;;;;;31.35;16.85;;;;;;;36.07;20.93;102703.91;5029450;28;20076;-71
2022/05/06 08:43:28;;;;;;;38.08;17.45;;;;;;;36.61;21.11;102694.38;5046814;28;20061;-71
2022/05/06 08:51:31;;;;;;;28.08;16.15;;;;;;;36.74;19.97;102698.69;5028749;28;20045;-71
2022/05/06 08:53:57;;;;;;;22.83;13.32;;;;;;;37.01;20.40;102700.69;5030207;28;20558;-72
2022/05/06 08:56:23;;;;;;;24.38;14.20;;;;;;;37.40;19.80;102705.22;5027235;28;20068;-71
2022/05/06 08:58:48;;;;;;;23.90;13.82;;;;;;;37.89;18.82;102697.72;5027992;28;20025;-71
2022/05/06 09:01:15;;;;;;;24.15;13.65;;;;;;;37.86;18.76;102695.31;5029437;28;20374;-72
2022/05/06 09:03:43;;;;;;;26.10;12.50;;;;;;;38.31;18.50;102699.94;5032286;28;20547;-71
2022/05/06 09:06:19;;;;;;;22.02;12.68;;;;;;;37.55;19.44;102692.84;5029581;28;20044;-72
2022/05/06 09:08:46;;;;;;;23.52;13.52;;;;;;;37.37;19.88;102694.63;5032711;28;20021;-71
2022/05/06 09:11:11;;;;;;;22.33;13.00;;;;;;;38.97;18.50;102689.59;5027207;28;20386;-71
2022/05/06 09:13:38;;;;;;;22.98;13.55;;;;;;;37.75;19.31;102698.22;5028144;28;20025;-71
2022/05/06 09:19:19;;;;;;;18.42;12.00;;;;;;;37.10;19.04;102693.53;5023893;28;20522;-72
2022/05/06 09:22:20;;;;;;;22.67;12.53;;;;;;;38.09;18.45;102686.72;5023789;28;20033;-70
2022/05/06 09:24:52;;;;;;;20.05;12.30;;;;;;;38.23;17.99;102697.13;4986285;28;20392;-70
2022/05/06 09:27:19;;;;;;;22.65;12.77;;;;;;;38.46;18.16;102696.69;5020288;28;20061;-70
2022/05/06 09:29:47;;;;;;;16.83;11.55;;;;;;;37.50;18.92;102698.72;5022514;28;20108;-70
2022/05/06 09:32:12;;;;;;;22.00;13.02;;;;;;;38.43;17.57;102694.22;5021874;28;20123;-71
2022/05/06 09:34:41;;;;;;;19.00;12.35;;;;;;;39.11;17.31;102690.03;5023165;28;20140;-70
2022/05/06 09:37:07;;;;;;;16.63;11.43;;;;;;;38.32;17.84;102696.19;5027852;28;20029;-71
2022/05/06 09:39:32;;;;;;;20.85;11.93;;;;;;;39.16;18.12;102683.09;5023833;28;20083;-71
2022/05/06 09:42:04;;;;;;;21.02;12.02;;;;;;;38.52;18.27;102690.56;5019075;28;20045;-71
2022/05/06 09:44:35;;;;;;;17.87;12.07;;;;;;;37.68;19.20;102687.03;5024868;28;20440;-71
2022/05/06 09:47:09;;;;;;;23.25;11.90;;;;;;;37.12;19.04;102681.44;5019853;28;20532;-71
2022/05/06 09:49:42;;;;;;;19.65;11.15;;;;;;;36.97;19.24;102683.81;5022183;28;20041;-71
2022/05/06 09:52:12;;;;;;;16.08;11.32;;;;;;;37.78;18.08;102682.41;5025051;28;20030;-71
2022/05/06 09:54:42;;;;;;;17.42;10.98;;;;;;;37.77;18.82;102679.84;5005964;28;20030;-71
2022/05/06 09:57:10;;;;;;;15.15;10.52;;;;;;;37.07;19.18;102678.31;5025171;28;20059;-71
2022/05/06 09:59:36;;;;;;;19.15;12.57;;;;;;;37.85;19.57;102677.22;5030517;28;20053;-71
2022/05/06 10:02:03;;;;;;;16.95;11.93;;;;;;;37.06;19.48;102675.75;5028420;28;20790;-71
2022/05/06 10:04:29;;;;;;;15.95;11.80;;;;;;;36.32;19.96;102675.31;5029102;28;20055;-71
2022/05/06 10:06:58;;;;;;;17.55;11.13;;;;;;;37.13;19.82;102671.44;5028338;28;20017;-71
2022/05/06 10:09:25;;;;;;;17.88;12.63;;;;;;;36.12;20.74;102669.84;5029309;28;20384;-71
2022/05/06 10:11:52;;;;;;;19.08;11.40;;;;;;;37.01;19.08;102659.81;5023088;28;20381;-71
2022/05/06 10:14:19;;;;;;;17.83;11.18;;;;;;;37.63;18.62;102662.97;5022152;28;20017;-71
2022/05/06 10:16:45;;;;;;;13.32;10.20;;;;;;;36.63;19.36;102665.16;5020802;28;20033;-71
2022/05/06 10:19:44;;;;;;;15.90;11.13;;;;;;;35.22;21.11;102663.28;5021800;28;20021;-71
2022/05/06 10:22:09;;;;;;;13.50;9.82;;;;;;;37.18;19.71;102663.69;5043528;28;20191;-71
2022/05/06 10:24:49;;;;;;;13.68;9.48;;;;;;;36.11;19.76;102669.97;5022954;28;20631;-71
2022/05/06 10:33:17;;;;;;;10.93;6.88;;;;;;;35.80;19.20;102654.53;5022154;28;20039;-71
2022/05/06 10:35:47;;;;;;;9.77;6.70;;;;;;;35.97;18.97;102652.16;5015943;28;20083;-70
2022/05/06 10:38:26;;;;;;;11.05;7.60;;;;;;;36.00;18.93;102646.47;5018200;28;20029;-70
2022/05/06 10:40:54;;;;;;;13.93;6.90;;;;;;;37.51;18.42;102647.81;5019218;28;20132;-70
2022/05/06 10:43:41;;;;;;;9.52;6.60;;;;;;;38.32;16.92;102647.06;5021602;28;20053;-71
2022/05/06 10:46:09;;;;;;;9.93;6.05;;;;;;;37.90;17.02;102642.16;5022183;28;20041;-71
2022/05/06 10:48:35;;;;;;;9.20;6.22;;;;;;;38.22;16.96;102643.50;5029736;28;20029;-71
2022/05/06 10:51:27;;;;;;;9.70;5.68;;;;;;;38.85;16.75;102633.50;5028666;28;20021;-71
2022/05/06 10:53:53;;;;;;;;;;;;;;;37.43;17.96;102634.06;5023808;28;20025;-71
2022/05/06 10:56:18;;;;;;;11.00;7.25;;;;;;;36.50;19.26;102640.94;5036620;28;21277;-71
2022/05/06 10:58:44;;;;;;;10.93;8.20;;;;;;;37.53;17.97;102637.59;5021894;28;20064;-71
2022/05/06 11:01:16;;;;;;;11.70;6.35;;;;;;;36.24;18.48;102637.88;5023715;28;20446;-71
2022/05/06 11:03:51;;;;;;;10.07;6.95;;;;;;;34.80;19.52;102636.97;5025230;28;20128;-71
2022/05/06 11:06:24;;;;;;;13.27;7.70;;;;;;;37.06;19.33;102643.06;5015686;28;20044;-70
2022/05/06 11:08:49;;;;;;;;;;;;;;;37.90;17.79;102638.56;5006015;28;20281;-70
2022/05/06 11:11:19;;;;;;;11.68;7.50;;;;;;;37.50;18.19;102632.44;5021476;28;20011;-71
2022/05/06 11:13:49;;;;;;;10.52;7.60;;;;;;;33.81;21.49;102641.56;5038121;28;20424;-71
2022/05/06 11:16:15;;;;;;;10.52;7.13;;;;;;;37.19;20.11;102632.66;5034142;28;20030;-71
2022/05/06 11:18:42;;;;;;;12.65;8.85;;;;;;;33.18;21.23;102624.88;5032341;28;20350;-71
2022/05/06 11:21:19;;;;;;;10.15;7.82;;;;;;;34.75;20.87;102628.34;5032129;28;20053;-71
2022/05/06 11:23:44;;;;;;;12.55;8.02;;;;;;;35.28;20.07;102627.44;5032638;28;20028;-71
2022/05/06 11:26:10;;;;;;;12.95;8.20;;;;;;;33.74;22.07;102622.19;5033385;28;20025;-70
2022/05/06 11:28:37;;;;;;;13.73;8.15;;;;;;;34.02;21.12;102621.81;5032924;28;20025;-71
2022/05/06 11:31:03;;;;;;;12.80;9.15;;;;;;;34.88;20.59;102627.31;5049627;28;20025;-70
2022/05/06 11:33:33;;;;;;;11.82;8.10;;;;;;;36.20;19.86;102620.13;5016733;28;20031;-70
2022/05/06 11:36:05;;;;;;;10.73;7.70;;;;;;;36.27;19.12;102615.84;5033841;28;20021;-71
2022/05/06 11:38:35;;;;;;;11.60;7.43;;;;;;;36.10;20.27;102619.28;5033024;28;20125;-70
2022/05/06 11:41:07;;;;;;;14.20;7.18;;;;;;;36.31;18.95;102602.81;5032613;28;20045;-70
2022/05/06 11:43:33;;;;;;;10.10;6.20;;;;;;;36.96;18.36;102613.09;5032344;28;20048;-71
2022/05/06 11:48:46;;;;;;;12.13;6.95;;;;;;;36.07;19.65;102598.66;5033288;28;20045;-71
2022/05/06 11:51:17;;;;;;;8.35;7.03;;;;;;;35.99;19.78;102602.06;5033143;28;20021;-71
2022/05/06 11:53:43;;;;;;;10.55;7.45;;;;;;;36.27;19.16;102595.94;5032383;28;20025;-70